sensor_id;sensor_type;location;lat;lon;timestamp;P1;P2;P0
70249;PMS5003;57644;48.416;-123.374;2023-01-23T00:01:56;2;2;
70249;PMS5003;57644;48.416;-123.374;2023-01-23T00:04:31;4;3;
70249;PMS5003;57644;48.416;-123.374;2023-01-23T00:06:57;2;2;
70249;PMS5003;57644;48.416;-123.374;2023-01-23T00:09:28;0;0;
70249;PMS5003;57644;48.416;-123.374;2023-01-23T00:11:58;1;1;
70249;PMS5003;57644;48.416;-123.374;2023-01-23T00:14:29;2;2;
70249;PMS5003;57644;48.416;-123.374;2023-01-23T00:16:59;3;2;
70249;PMS5003;57644;48.416;-123.374;2023-01-23T00:19:30;2;2;
70249;PMS5003;57644;48.416;-123.374;2023-01-23T00:22:00;1;1;
70249;PMS5003;57644;48.416;-123.374;2023-01-23T00:24:31;2;2;
70249;PMS5003;57644;48.416;-123.374;2023-01-23T00:27:04;3;2;
70249;PMS5003;57644;48.416;-123.374;2023-01-23T00:29:32;3;2;
70249;PMS5003;57644;48.416;-123.374;2023-01-23T00:32:02;2;2;
70249;PMS5003;57644;48.416;-123.374;2023-01-23T00:34:33;3;2;
70249;PMS5003;57644;48.416;-123.374;2023-01-23T00:37:03;4;3;
70249;PMS5003;57644;48.416;-123.374;2023-01-23T00:39:34;2;2;
70249;PMS5003;57644;48.416;-123.374;2023-01-23T00:42:05;4;4;
70249;PMS5003;57644;48.416;-123.374;2023-01-23T00:44:35;2;2;
70249;PMS5003;57644;48.416;-123.374;2023-01-23T00:47:05;2;1;
70249;PMS5003;57644;48.416;-123.374;2023-01-23T00:49:36;4;3;
70249;PMS5003;57644;48.416;-123.374;2023-01-23T00:52:06;3;3;
70249;PMS5003;57644;48.416;-123.374;2023-01-23T00:54:37;3;3;
70249;PMS5003;57644;48.416;-123.374;2023-01-23T00:57:08;2;2;
70249;PMS5003;57644;48.416;-123.374;2023-01-23T00:59:38;5;3;
70249;PMS5003;57644;48.416;-123.374;2023-01-23T01:02:09;4;4;
70249;PMS5003;57644;48.416;-123.374;2023-01-23T01:04:39;6;4;
70249;PMS5003;57644;48.416;-123.374;2023-01-23T01:07:10;9;7;
70249;PMS5003;57644;48.416;-123.374;2023-01-23T01:09:40;9;8;
70249;PMS5003;57644;48.416;-123.374;2023-01-23T01:12:11;6;6;
70249;PMS5003;57644;48.416;-123.374;2023-01-23T01:14:41;6;4;
70249;PMS5003;57644;48.416;-123.374;2023-01-23T01:17:11;6;6;
70249;PMS5003;57644;48.416;-123.374;2023-01-23T01:19:42;8;6;
70249;PMS5003;57644;48.416;-123.374;2023-01-23T01:22:13;9;9;
70249;PMS5003;57644;48.416;-123.374;2023-01-23T01:24:43;8;8;
70249;PMS5003;57644;48.416;-123.374;2023-01-23T01:27:14;9;8;
70249;PMS5003;57644;48.416;-123.374;2023-01-23T01:29:44;8;7;
70249;PMS5003;57644;48.416;-123.374;2023-01-23T01:32:15;8;7;
70249;PMS5003;57644;48.416;-123.374;2023-01-23T01:34:45;8;7;
70249;PMS5003;57644;48.416;-123.374;2023-01-23T01:37:16;4;4;
70249;PMS5003;57644;48.416;-123.374;2023-01-23T01:39:47;8;5;
70249;PMS5003;57644;48.416;-123.374;2023-01-23T01:42:17;7;6;
70249;PMS5003;57644;48.416;-123.374;2023-01-23T01:44:51;5;4;
70249;PMS5003;57644;48.416;-123.374;2023-01-23T01:47:18;8;5;
70249;PMS5003;57644;48.416;-123.374;2023-01-23T01:49:49;6;6;
70249;PMS5003;57644;48.416;-123.374;2023-01-23T01:52:20;7;6;
70249;PMS5003;57644;48.416;-123.374;2023-01-23T01:54:51;10;8;
70249;PMS5003;57644;48.416;-123.374;2023-01-23T01:57:22;7;7;
70249;PMS5003;57644;48.416;-123.374;2023-01-23T01:59:51;5;5;
70249;PMS5003;57644;48.416;-123.374;2023-01-23T02:02:22;8;7;
70249;PMS5003;57644;48.416;-123.374;2023-01-23T02:04:53;9;9;
70249;PMS5003;57644;48.416;-123.374;2023-01-23T02:07:23;8;8;
70249;PMS5003;57644;48.416;-123.374;2023-01-23T02:09:53;8;8;
70249;PMS5003;57644;48.416;-123.374;2023-01-23T02:12:24;7;7;
70249;PMS5003;57644;48.416;-123.374;2023-01-23T02:14:54;10;9;
70249;PMS5003;57644;48.416;-123.374;2023-01-23T02:17:25;8;7;
70249;PMS5003;57644;48.416;-123.374;2023-01-23T02:19:57;7;6;
70249;PMS5003;57644;48.416;-123.374;2023-01-23T02:22:29;9;9;
70249;PMS5003;57644;48.416;-123.374;2023-01-23T02:24:58;8;8;
70249;PMS5003;57644;48.416;-123.374;2023-01-23T02:27:27;8;8;
70249;PMS5003;57644;48.416;-123.374;2023-01-23T02:29:57;8;8;
70249;PMS5003;57644;48.416;-123.374;2023-01-23T02:32:28;10;8;
70249;PMS5003;57644;48.416;-123.374;2023-01-23T02:34:59;8;7;
70249;PMS5003;57644;48.416;-123.374;2023-01-23T02:37:29;9;9;
70249;PMS5003;57644;48.416;-123.374;2023-01-23T02:40:00;13;13;
70249;PMS5003;57644;48.416;-123.374;2023-01-23T02:42:30;12;12;
70249;PMS5003;57644;48.416;-123.374;2023-01-23T02:45:01;14;13;
70249;PMS5003;57644;48.416;-123.374;2023-01-23T02:47:31;19;19;
70249;PMS5003;57644;48.416;-123.374;2023-01-23T02:50:02;21;21;
70249;PMS5003;57644;48.416;-123.374;2023-01-23T02:52:32;18;17;
70249;PMS5003;57644;48.416;-123.374;2023-01-23T02:55:03;22;21;
70249;PMS5003;57644;48.416;-123.374;2023-01-23T02:57:33;21;19;
70249;PMS5003;57644;48.416;-123.374;2023-01-23T03:00:03;22;21;
70249;PMS5003;57644;48.416;-123.374;2023-01-23T03:02:33;22;21;
70249;PMS5003;57644;48.416;-123.374;2023-01-23T03:05:04;23;21;
70249;PMS5003;57644;48.416;-123.374;2023-01-23T03:07:34;26;25;
70249;PMS5003;57644;48.416;-123.374;2023-01-23T03:10:05;25;23;
70249;PMS5003;57644;48.416;-123.374;2023-01-23T03:12:35;25;21;
70249;PMS5003;57644;48.416;-123.374;2023-01-23T03:15:10;30;29;
70249;PMS5003;57644;48.416;-123.374;2023-01-23T03:17:39;27;24;
70249;PMS5003;57644;48.416;-123.374;2023-01-23T03:20:07;31;28;
70249;PMS5003;57644;48.416;-123.374;2023-01-23T03:22:36;41;39;
70249;PMS5003;57644;48.416;-123.374;2023-01-23T03:25:07;34;32;
70249;PMS5003;57644;48.416;-123.374;2023-01-23T03:27:37;34;32;
70249;PMS5003;57644;48.416;-123.374;2023-01-23T03:30:09;42;38;
70249;PMS5003;57644;48.416;-123.374;2023-01-23T03:32:38;37;35;
70249;PMS5003;57644;48.416;-123.374;2023-01-23T03:35:09;38;37;
70249;PMS5003;57644;48.416;-123.374;2023-01-23T03:37:39;43;39;
70249;PMS5003;57644;48.416;-123.374;2023-01-23T03:40:13;37;35;
70249;PMS5003;57644;48.416;-123.374;2023-01-23T03:42:39;34;34;
70249;PMS5003;57644;48.416;-123.374;2023-01-23T03:45:09;32;30;
70249;PMS5003;57644;48.416;-123.374;2023-01-23T03:47:40;40;37;
70249;PMS5003;57644;48.416;-123.374;2023-01-23T03:50:11;37;36;
70249;PMS5003;57644;48.416;-123.374;2023-01-23T03:52:41;38;38;
70249;PMS5003;57644;48.416;-123.374;2023-01-23T03:55:11;46;42;
70249;PMS5003;57644;48.416;-123.374;2023-01-23T03:57:42;42;40;
70249;PMS5003;57644;48.416;-123.374;2023-01-23T04:00:13;41;36;
70249;PMS5003;57644;48.416;-123.374;2023-01-23T04:02:42;38;37;
70249;PMS5003;57644;48.416;-123.374;2023-01-23T04:05:13;40;36;
70249;PMS5003;57644;48.416;-123.374;2023-01-23T04:07:43;30;30;
70249;PMS5003;57644;48.416;-123.374;2023-01-23T04:10:14;39;36;
70249;PMS5003;57644;48.416;-123.374;2023-01-23T04:12:44;37;35;
70249;PMS5003;57644;48.416;-123.374;2023-01-23T04:15:15;37;35;
70249;PMS5003;57644;48.416;-123.374;2023-01-23T04:17:45;46;42;
70249;PMS5003;57644;48.416;-123.374;2023-01-23T04:20:16;39;38;
70249;PMS5003;57644;48.416;-123.374;2023-01-23T04:22:47;43;41;
70249;PMS5003;57644;48.416;-123.374;2023-01-23T04:25:17;43;40;
70249;PMS5003;57644;48.416;-123.374;2023-01-23T04:27:48;41;39;
70249;PMS5003;57644;48.416;-123.374;2023-01-23T04:30:18;45;42;
70249;PMS5003;57644;48.416;-123.374;2023-01-23T04:32:50;38;38;
70249;PMS5003;57644;48.416;-123.374;2023-01-23T04:35:19;33;31;
70249;PMS5003;57644;48.416;-123.374;2023-01-23T04:37:49;34;33;
70249;PMS5003;57644;48.416;-123.374;2023-01-23T04:40:20;33;33;
70249;PMS5003;57644;48.416;-123.374;2023-01-23T04:42:51;35;32;
70249;PMS5003;57644;48.416;-123.374;2023-01-23T04:45:21;34;31;
70249;PMS5003;57644;48.416;-123.374;2023-01-23T04:47:51;33;30;
70249;PMS5003;57644;48.416;-123.374;2023-01-23T04:50:22;32;31;
70249;PMS5003;57644;48.416;-123.374;2023-01-23T04:52:52;35;29;
70249;PMS5003;57644;48.416;-123.374;2023-01-23T04:55:23;38;35;
70249;PMS5003;57644;48.416;-123.374;2023-01-23T04:57:53;39;37;
70249;PMS5003;57644;48.416;-123.374;2023-01-23T05:00:24;41;38;
70249;PMS5003;57644;48.416;-123.374;2023-01-23T05:02:55;40;36;
70249;PMS5003;57644;48.416;-123.374;2023-01-23T05:05:25;44;42;
70249;PMS5003;57644;48.416;-123.374;2023-01-23T05:07:55;37;35;
70249;PMS5003;57644;48.416;-123.374;2023-01-23T05:10:27;42;36;
70249;PMS5003;57644;48.416;-123.374;2023-01-23T05:12:56;36;34;
70249;PMS5003;57644;48.416;-123.374;2023-01-23T05:15:27;33;33;
70249;PMS5003;57644;48.416;-123.374;2023-01-23T05:17:57;28;25;
70249;PMS5003;57644;48.416;-123.374;2023-01-23T05:20:28;33;32;
70249;PMS5003;57644;48.416;-123.374;2023-01-23T05:22:58;32;29;
70249;PMS5003;57644;48.416;-123.374;2023-01-23T05:25:29;29;28;
70249;PMS5003;57644;48.416;-123.374;2023-01-23T05:27:59;37;35;
70249;PMS5003;57644;48.416;-123.374;2023-01-23T05:30:30;37;35;
70249;PMS5003;57644;48.416;-123.374;2023-01-23T05:33:00;31;30;
70249;PMS5003;57644;48.416;-123.374;2023-01-23T05:35:30;36;33;
70249;PMS5003;57644;48.416;-123.374;2023-01-23T05:38:00;39;39;
70249;PMS5003;57644;48.416;-123.374;2023-01-23T05:40:31;40;38;
70249;PMS5003;57644;48.416;-123.374;2023-01-23T05:43:01;41;39;
70249;PMS5003;57644;48.416;-123.374;2023-01-23T05:45:31;42;40;
70249;PMS5003;57644;48.416;-123.374;2023-01-23T05:48:02;42;40;
70249;PMS5003;57644;48.416;-123.374;2023-01-23T05:50:32;41;36;
70249;PMS5003;57644;48.416;-123.374;2023-01-23T05:53:03;34;31;
70249;PMS5003;57644;48.416;-123.374;2023-01-23T05:55:33;35;34;
70249;PMS5003;57644;48.416;-123.374;2023-01-23T05:58:03;39;33;
70249;PMS5003;57644;48.416;-123.374;2023-01-23T06:00:33;36;33;
70249;PMS5003;57644;48.416;-123.374;2023-01-23T06:03:03;37;34;
70249;PMS5003;57644;48.416;-123.374;2023-01-23T06:05:34;38;37;
70249;PMS5003;57644;48.416;-123.374;2023-01-23T06:08:04;34;34;
70249;PMS5003;57644;48.416;-123.374;2023-01-23T06:10:35;40;39;
70249;PMS5003;57644;48.416;-123.374;2023-01-23T06:13:05;36;35;
70249;PMS5003;57644;48.416;-123.374;2023-01-23T06:15:36;35;34;
70249;PMS5003;57644;48.416;-123.374;2023-01-23T06:18:06;34;33;
70249;PMS5003;57644;48.416;-123.374;2023-01-23T06:20:36;32;31;
70249;PMS5003;57644;48.416;-123.374;2023-01-23T06:23:06;30;28;
70249;PMS5003;57644;48.416;-123.374;2023-01-23T06:25:37;37;35;
70249;PMS5003;57644;48.416;-123.374;2023-01-23T06:28:07;30;29;
70249;PMS5003;57644;48.416;-123.374;2023-01-23T06:30:37;33;30;
70249;PMS5003;57644;48.416;-123.374;2023-01-23T06:33:08;42;35;
70249;PMS5003;57644;48.416;-123.374;2023-01-23T06:35:39;30;30;
70249;PMS5003;57644;48.416;-123.374;2023-01-23T06:38:09;25;25;
70249;PMS5003;57644;48.416;-123.374;2023-01-23T06:40:39;25;24;
70249;PMS5003;57644;48.416;-123.374;2023-01-23T06:43:09;28;27;
70249;PMS5003;57644;48.416;-123.374;2023-01-23T06:45:42;33;28;
70249;PMS5003;57644;48.416;-123.374;2023-01-23T06:48:10;31;29;
70249;PMS5003;57644;48.416;-123.374;2023-01-23T06:50:41;34;33;
70249;PMS5003;57644;48.416;-123.374;2023-01-23T06:53:12;33;33;
70249;PMS5003;57644;48.416;-123.374;2023-01-23T06:55:41;34;33;
70249;PMS5003;57644;48.416;-123.374;2023-01-23T06:58:12;33;31;
70249;PMS5003;57644;48.416;-123.374;2023-01-23T07:00:42;34;32;
70249;PMS5003;57644;48.416;-123.374;2023-01-23T07:03:12;35;33;
70249;PMS5003;57644;48.416;-123.374;2023-01-23T07:05:43;37;34;
70249;PMS5003;57644;48.416;-123.374;2023-01-23T07:08:13;30;30;
70249;PMS5003;57644;48.416;-123.374;2023-01-23T07:10:43;36;35;
70249;PMS5003;57644;48.416;-123.374;2023-01-23T07:13:13;31;30;
70249;PMS5003;57644;48.416;-123.374;2023-01-23T07:15:45;33;32;
70249;PMS5003;57644;48.416;-123.374;2023-01-23T07:18:15;28;27;
70249;PMS5003;57644;48.416;-123.374;2023-01-23T07:20:46;29;28;
70249;PMS5003;57644;48.416;-123.374;2023-01-23T07:23:16;31;29;
70249;PMS5003;57644;48.416;-123.374;2023-01-23T07:25:47;36;34;
70249;PMS5003;57644;48.416;-123.374;2023-01-23T07:28:17;36;30;
70249;PMS5003;57644;48.416;-123.374;2023-01-23T07:30:49;26;25;
70249;PMS5003;57644;48.416;-123.374;2023-01-23T07:33:18;36;35;
70249;PMS5003;57644;48.416;-123.374;2023-01-23T07:35:49;34;33;
70249;PMS5003;57644;48.416;-123.374;2023-01-23T07:38:19;34;32;
70249;PMS5003;57644;48.416;-123.374;2023-01-23T07:40:50;32;30;
70249;PMS5003;57644;48.416;-123.374;2023-01-23T07:43:20;36;34;
70249;PMS5003;57644;48.416;-123.374;2023-01-23T07:45:51;33;32;
70249;PMS5003;57644;48.416;-123.374;2023-01-23T07:48:21;37;33;
70249;PMS5003;57644;48.416;-123.374;2023-01-23T07:50:52;37;32;
70249;PMS5003;57644;48.416;-123.374;2023-01-23T07:53:22;33;32;
70249;PMS5003;57644;48.416;-123.374;2023-01-23T07:55:52;31;29;
70249;PMS5003;57644;48.416;-123.374;2023-01-23T07:58:23;31;29;
70249;PMS5003;57644;48.416;-123.374;2023-01-23T08:00:53;35;34;
70249;PMS5003;57644;48.416;-123.374;2023-01-23T08:03:23;29;26;
70249;PMS5003;57644;48.416;-123.374;2023-01-23T08:05:53;37;33;
70249;PMS5003;57644;48.416;-123.374;2023-01-23T08:08:24;30;28;
70249;PMS5003;57644;48.416;-123.374;2023-01-23T08:10:54;29;27;
70249;PMS5003;57644;48.416;-123.374;2023-01-23T08:13:24;26;25;
70249;PMS5003;57644;48.416;-123.374;2023-01-23T08:15:56;27;27;
70249;PMS5003;57644;48.416;-123.374;2023-01-23T08:18:25;26;24;
70249;PMS5003;57644;48.416;-123.374;2023-01-23T08:20:56;26;25;
70249;PMS5003;57644;48.416;-123.374;2023-01-23T08:23:27;32;27;
70249;PMS5003;57644;48.416;-123.374;2023-01-23T08:25:57;22;20;
70249;PMS5003;57644;48.416;-123.374;2023-01-23T08:28:27;21;20;
70249;PMS5003;57644;48.416;-123.374;2023-01-23T08:30:59;19;18;
70249;PMS5003;57644;48.416;-123.374;2023-01-23T08:33:28;20;18;
70249;PMS5003;57644;48.416;-123.374;2023-01-23T08:35:58;24;23;
70249;PMS5003;57644;48.416;-123.374;2023-01-23T08:38:29;22;21;
70249;PMS5003;57644;48.416;-123.374;2023-01-23T08:41:00;19;19;
70249;PMS5003;57644;48.416;-123.374;2023-01-23T08:43:30;14;14;
70249;PMS5003;57644;48.416;-123.374;2023-01-23T08:46:00;11;11;
70249;PMS5003;57644;48.416;-123.374;2023-01-23T08:48:31;13;11;
70249;PMS5003;57644;48.416;-123.374;2023-01-23T08:51:03;7;7;
70249;PMS5003;57644;48.416;-123.374;2023-01-23T08:53:32;9;9;
70249;PMS5003;57644;48.416;-123.374;2023-01-23T08:56:04;9;9;
70249;PMS5003;57644;48.416;-123.374;2023-01-23T08:58:34;10;9;
70249;PMS5003;57644;48.416;-123.374;2023-01-23T09:01:04;4;4;
70249;PMS5003;57644;48.416;-123.374;2023-01-23T09:03:34;7;7;
70249;PMS5003;57644;48.416;-123.374;2023-01-23T09:06:05;6;6;
70249;PMS5003;57644;48.416;-123.374;2023-01-23T09:08:36;8;8;
70249;PMS5003;57644;48.416;-123.374;2023-01-23T09:11:07;8;7;
70249;PMS5003;57644;48.416;-123.374;2023-01-23T09:13:37;7;6;
70249;PMS5003;57644;48.416;-123.374;2023-01-23T09:16:07;8;8;
70249;PMS5003;57644;48.416;-123.374;2023-01-23T09:18:38;7;7;
70249;PMS5003;57644;48.416;-123.374;2023-01-23T09:21:09;7;7;
70249;PMS5003;57644;48.416;-123.374;2023-01-23T09:23:39;7;6;
70249;PMS5003;57644;48.416;-123.374;2023-01-23T09:26:10;7;6;
70249;PMS5003;57644;48.416;-123.374;2023-01-23T09:28:40;8;6;
70249;PMS5003;57644;48.416;-123.374;2023-01-23T09:31:11;6;6;
70249;PMS5003;57644;48.416;-123.374;2023-01-23T09:33:41;8;8;
70249;PMS5003;57644;48.416;-123.374;2023-01-23T09:36:11;7;6;
70249;PMS5003;57644;48.416;-123.374;2023-01-23T09:38:42;9;8;
70249;PMS5003;57644;48.416;-123.374;2023-01-23T09:41:15;7;7;
70249;PMS5003;57644;48.416;-123.374;2023-01-23T09:43:44;7;7;
70249;PMS5003;57644;48.416;-123.374;2023-01-23T09:46:15;7;7;
70249;PMS5003;57644;48.416;-123.374;2023-01-23T09:48:45;7;7;
70249;PMS5003;57644;48.416;-123.374;2023-01-23T09:51:19;8;7;
70249;PMS5003;57644;48.416;-123.374;2023-01-23T09:53:45;9;7;
70249;PMS5003;57644;48.416;-123.374;2023-01-23T09:56:21;9;9;
70249;PMS5003;57644;48.416;-123.374;2023-01-23T09:58:48;8;6;
70249;PMS5003;57644;48.416;-123.374;2023-01-23T10:01:16;8;8;
70249;PMS5003;57644;48.416;-123.374;2023-01-23T10:03:46;6;6;
70249;PMS5003;57644;48.416;-123.374;2023-01-23T10:06:18;9;7;
70249;PMS5003;57644;48.416;-123.374;2023-01-23T10:08:52;10;10;
70249;PMS5003;57644;48.416;-123.374;2023-01-23T10:11:20;8;8;
70249;PMS5003;57644;48.416;-123.374;2023-01-23T10:13:53;9;8;
70249;PMS5003;57644;48.416;-123.374;2023-01-23T10:16:27;14;12;
70249;PMS5003;57644;48.416;-123.374;2023-01-23T10:18:52;15;13;
70249;PMS5003;57644;48.416;-123.374;2023-01-23T10:21:23;20;20;
70249;PMS5003;57644;48.416;-123.374;2023-01-23T10:23:55;19;18;
70249;PMS5003;57644;48.416;-123.374;2023-01-23T10:26:22;16;15;
70249;PMS5003;57644;48.416;-123.374;2023-01-23T10:28:52;16;14;
70249;PMS5003;57644;48.416;-123.374;2023-01-23T10:31:26;17;15;
70249;PMS5003;57644;48.416;-123.374;2023-01-23T10:33:55;17;17;
70249;PMS5003;57644;48.416;-123.374;2023-01-23T10:36:24;15;14;
70249;PMS5003;57644;48.416;-123.374;2023-01-23T10:38:55;18;17;
70249;PMS5003;57644;48.416;-123.374;2023-01-23T10:41:24;20;19;
70249;PMS5003;57644;48.416;-123.374;2023-01-23T10:43:54;15;14;
70249;PMS5003;57644;48.416;-123.374;2023-01-23T10:46:28;14;13;
70249;PMS5003;57644;48.416;-123.374;2023-01-23T10:48:55;6;6;
70249;PMS5003;57644;48.416;-123.374;2023-01-23T10:51:28;7;7;
70249;PMS5003;57644;48.416;-123.374;2023-01-23T10:54:01;7;6;
70249;PMS5003;57644;48.416;-123.374;2023-01-23T10:56:27;8;8;
70249;PMS5003;57644;48.416;-123.374;2023-01-23T10:58:58;9;9;
70249;PMS5003;57644;48.416;-123.374;2023-01-23T11:01:29;8;7;
70249;PMS5003;57644;48.416;-123.374;2023-01-23T11:06:29;8;7;
70249;PMS5003;57644;48.416;-123.374;2023-01-23T11:09:00;7;7;
70249;PMS5003;57644;48.416;-123.374;2023-01-23T11:11:30;8;8;
70249;PMS5003;57644;48.416;-123.374;2023-01-23T11:14:04;6;6;
70249;PMS5003;57644;48.416;-123.374;2023-01-23T11:16:31;7;7;
70249;PMS5003;57644;48.416;-123.374;2023-01-23T11:19:03;6;6;
70249;PMS5003;57644;48.416;-123.374;2023-01-23T11:21:32;6;6;
70249;PMS5003;57644;48.416;-123.374;2023-01-23T11:26:34;8;6;
70249;PMS5003;57644;48.416;-123.374;2023-01-23T11:31:34;5;5;
70249;PMS5003;57644;48.416;-123.374;2023-01-23T11:34:06;5;5;
70249;PMS5003;57644;48.416;-123.374;2023-01-23T11:36:39;4;4;
70249;PMS5003;57644;48.416;-123.374;2023-01-23T11:39:09;6;4;
70249;PMS5003;57644;48.416;-123.374;2023-01-23T11:41:36;6;4;
70249;PMS5003;57644;48.416;-123.374;2023-01-23T11:44:08;4;4;
70249;PMS5003;57644;48.416;-123.374;2023-01-23T11:46:41;2;2;
70249;PMS5003;57644;48.416;-123.374;2023-01-23T11:49:12;4;3;
70249;PMS5003;57644;48.416;-123.374;2023-01-23T11:51:40;5;4;
70249;PMS5003;57644;48.416;-123.374;2023-01-23T11:54:13;2;2;
70249;PMS5003;57644;48.416;-123.374;2023-01-23T11:56:43;7;7;
70249;PMS5003;57644;48.416;-123.374;2023-01-23T12:01:43;3;3;
70249;PMS5003;57644;48.416;-123.374;2023-01-23T12:06:45;2;2;
70249;PMS5003;57644;48.416;-123.374;2023-01-23T12:09:12;2;2;
70249;PMS5003;57644;48.416;-123.374;2023-01-23T12:11:46;4;4;
70249;PMS5003;57644;48.416;-123.374;2023-01-23T12:14:15;2;2;
70249;PMS5003;57644;48.416;-123.374;2023-01-23T12:19:17;3;2;
70249;PMS5003;57644;48.416;-123.374;2023-01-23T12:21:46;3;3;
70249;PMS5003;57644;48.416;-123.374;2023-01-23T12:24:17;3;3;
70249;PMS5003;57644;48.416;-123.374;2023-01-23T12:26:50;1;1;
70249;PMS5003;57644;48.416;-123.374;2023-01-23T12:31:53;1;1;
70249;PMS5003;57644;48.416;-123.374;2023-01-23T12:34:22;2;2;
70249;PMS5003;57644;48.416;-123.374;2023-01-23T12:36:52;2;2;
70249;PMS5003;57644;48.416;-123.374;2023-01-23T12:39:22;2;1;
70249;PMS5003;57644;48.416;-123.374;2023-01-23T12:41:49;1;1;
70249;PMS5003;57644;48.416;-123.374;2023-01-23T12:44:20;2;2;
70249;PMS5003;57644;48.416;-123.374;2023-01-23T12:46:51;3;2;
70249;PMS5003;57644;48.416;-123.374;2023-01-23T12:49:22;1;1;
70249;PMS5003;57644;48.416;-123.374;2023-01-23T12:51:52;1;1;
70249;PMS5003;57644;48.416;-123.374;2023-01-23T12:54:25;2;2;
70249;PMS5003;57644;48.416;-123.374;2023-01-23T12:56:52;2;2;
70249;PMS5003;57644;48.416;-123.374;2023-01-23T12:59:23;1;1;
70249;PMS5003;57644;48.416;-123.374;2023-01-23T13:01:56;2;2;
70249;PMS5003;57644;48.416;-123.374;2023-01-23T13:04:28;1;1;
70249;PMS5003;57644;48.416;-123.374;2023-01-23T13:06:56;3;2;
70249;PMS5003;57644;48.416;-123.374;2023-01-23T13:09:28;4;4;
70249;PMS5003;57644;48.416;-123.374;2023-01-23T13:11:57;3;2;
70249;PMS5003;57644;48.416;-123.374;2023-01-23T13:16:56;4;4;
70249;PMS5003;57644;48.416;-123.374;2023-01-23T13:19:26;2;2;
70249;PMS5003;57644;48.416;-123.374;2023-01-23T13:24:36;3;2;
70249;PMS5003;57644;48.416;-123.374;2023-01-23T13:26:58;1;1;
70249;PMS5003;57644;48.416;-123.374;2023-01-23T13:34:34;4;3;
70249;PMS5003;57644;48.416;-123.374;2023-01-23T13:39:31;2;2;
70249;PMS5003;57644;48.416;-123.374;2023-01-23T13:44:32;2;2;
70249;PMS5003;57644;48.416;-123.374;2023-01-23T13:47:08;7;6;
70249;PMS5003;57644;48.416;-123.374;2023-01-23T13:49:36;5;4;
70249;PMS5003;57644;48.416;-123.374;2023-01-23T13:52:06;1;1;
70249;PMS5003;57644;48.416;-123.374;2023-01-23T13:54:34;3;2;
70249;PMS5003;57644;48.416;-123.374;2023-01-23T13:57:04;4;3;
70249;PMS5003;57644;48.416;-123.374;2023-01-23T13:59:37;4;4;
70249;PMS5003;57644;48.416;-123.374;2023-01-23T14:04:37;6;4;
70249;PMS5003;57644;48.416;-123.374;2023-01-23T14:09:41;4;4;
70249;PMS5003;57644;48.416;-123.374;2023-01-23T14:12:07;5;4;
70249;PMS5003;57644;48.416;-123.374;2023-01-23T14:14:38;4;3;
70249;PMS5003;57644;48.416;-123.374;2023-01-23T14:17:09;4;4;
70249;PMS5003;57644;48.416;-123.374;2023-01-23T14:22:10;4;4;
70249;PMS5003;57644;48.416;-123.374;2023-01-23T14:27:16;6;6;
70249;PMS5003;57644;48.416;-123.374;2023-01-23T14:29:41;6;5;
70249;PMS5003;57644;48.416;-123.374;2023-01-23T14:37:13;8;8;
70249;PMS5003;57644;48.416;-123.374;2023-01-23T14:39:44;8;7;
70249;PMS5003;57644;48.416;-123.374;2023-01-23T14:42:18;9;8;
70249;PMS5003;57644;48.416;-123.374;2023-01-23T14:47:24;7;6;
70249;PMS5003;57644;48.416;-123.374;2023-01-23T14:49:46;7;7;
70249;PMS5003;57644;48.416;-123.374;2023-01-23T14:52:22;5;3;
70249;PMS5003;57644;48.416;-123.374;2023-01-23T14:54:47;7;6;
70249;PMS5003;57644;48.416;-123.374;2023-01-23T14:57:23;6;5;
70249;PMS5003;57644;48.416;-123.374;2023-01-23T14:59:48;3;3;
70249;PMS5003;57644;48.416;-123.374;2023-01-23T15:02:23;3;2;
70249;PMS5003;57644;48.416;-123.374;2023-01-23T15:07:19;2;2;
70249;PMS5003;57644;48.416;-123.374;2023-01-23T15:09:50;3;2;
70249;PMS5003;57644;48.416;-123.374;2023-01-23T15:12:20;2;2;
70249;PMS5003;57644;48.416;-123.374;2023-01-23T15:14:51;6;5;
70249;PMS5003;57644;48.416;-123.374;2023-01-23T15:17:21;3;3;
70249;PMS5003;57644;48.416;-123.374;2023-01-23T15:19:52;3;2;
70249;PMS5003;57644;48.416;-123.374;2023-01-23T15:22:24;4;4;
70249;PMS5003;57644;48.416;-123.374;2023-01-23T15:24:53;4;4;
70249;PMS5003;57644;48.416;-123.374;2023-01-23T15:27:24;5;3;
70249;PMS5003;57644;48.416;-123.374;2023-01-23T15:32:24;8;5;
70249;PMS5003;57644;48.416;-123.374;2023-01-23T15:34:55;4;4;
70249;PMS5003;57644;48.416;-123.374;2023-01-23T15:37:26;4;4;
70249;PMS5003;57644;48.416;-123.374;2023-01-23T15:39:56;4;4;
70249;PMS5003;57644;48.416;-123.374;2023-01-23T15:42:28;3;3;
70249;PMS5003;57644;48.416;-123.374;2023-01-23T15:44:57;7;6;
70249;PMS5003;57644;48.416;-123.374;2023-01-23T15:47:28;7;4;
70249;PMS5003;57644;48.416;-123.374;2023-01-23T15:49:58;4;4;
70249;PMS5003;57644;48.416;-123.374;2023-01-23T15:52:29;5;4;
70249;PMS5003;57644;48.416;-123.374;2023-01-23T15:55:02;4;4;
70249;PMS5003;57644;48.416;-123.374;2023-01-23T15:57:29;5;5;
70249;PMS5003;57644;48.416;-123.374;2023-01-23T16:00:01;4;4;
70249;PMS5003;57644;48.416;-123.374;2023-01-23T16:02:31;5;3;
70249;PMS5003;57644;48.416;-123.374;2023-01-23T16:05:01;5;4;
70249;PMS5003;57644;48.416;-123.374;2023-01-23T16:07:32;2;2;
70249;PMS5003;57644;48.416;-123.374;2023-01-23T16:10:04;2;1;
70249;PMS5003;57644;48.416;-123.374;2023-01-23T16:12:32;4;4;
70249;PMS5003;57644;48.416;-123.374;2023-01-23T16:15:11;4;4;
70249;PMS5003;57644;48.416;-123.374;2023-01-23T16:17:33;4;3;
70249;PMS5003;57644;48.416;-123.374;2023-01-23T16:20:04;4;4;
70249;PMS5003;57644;48.416;-123.374;2023-01-23T16:22:34;4;3;
70249;PMS5003;57644;48.416;-123.374;2023-01-23T16:25:06;4;4;
70249;PMS5003;57644;48.416;-123.374;2023-01-23T16:27:36;5;4;
70249;PMS5003;57644;48.416;-123.374;2023-01-23T16:30:08;3;2;
70249;PMS5003;57644;48.416;-123.374;2023-01-23T16:32:37;2;2;
70249;PMS5003;57644;48.416;-123.374;2023-01-23T16:35:08;4;4;
70249;PMS5003;57644;48.416;-123.374;2023-01-23T16:37:38;2;2;
70249;PMS5003;57644;48.416;-123.374;2023-01-23T16:40:14;4;4;
70249;PMS5003;57644;48.416;-123.374;2023-01-23T16:42:39;3;3;
70249;PMS5003;57644;48.416;-123.374;2023-01-23T16:45:12;4;3;
70249;PMS5003;57644;48.416;-123.374;2023-01-23T16:47:40;5;4;
70249;PMS5003;57644;48.416;-123.374;2023-01-23T16:50:11;5;3;
70249;PMS5003;57644;48.416;-123.374;2023-01-23T16:52:41;3;3;
70249;PMS5003;57644;48.416;-123.374;2023-01-23T16:55:16;3;3;
70249;PMS5003;57644;48.416;-123.374;2023-01-23T16:57:42;5;4;
70249;PMS5003;57644;48.416;-123.374;2023-01-23T17:00:14;4;3;
70249;PMS5003;57644;48.416;-123.374;2023-01-23T17:02:44;3;3;
70249;PMS5003;57644;48.416;-123.374;2023-01-23T17:05:14;6;5;